createdAt,value
2018-02-08T00:00:30.227Z,78.26
2018-02-08T00:02:56.580Z,77.88
2018-02-08T00:05:22.995Z,78.32
2018-02-08T00:07:49.357Z,78.60
2018-02-08T00:10:15.717Z,78.44
2018-02-08T00:12:42.129Z,78.84
2018-02-08T00:15:08.736Z,78.27
2018-02-08T00:17:35.240Z,78.80
2018-02-08T00:20:01.573Z,78.50
2018-02-08T00:22:40.088Z,78.52
2018-02-08T00:25:06.375Z,78.47
2018-02-08T00:27:32.725Z,78.36
2018-02-08T00:29:59.204Z,78.01
2018-02-08T00:32:25.582Z,78.00
2018-02-08T00:34:51.917Z,78.49
2018-02-08T00:37:18.358Z,78.88
2018-02-08T00:39:44.693Z,78.41
2018-02-08T00:42:11.021Z,78.18
2018-02-08T00:44:37.420Z,79.04
2018-02-08T00:47:03.804Z,78.59
2018-02-08T00:49:30.141Z,78.49
2018-02-08T00:51:56.508Z,78.32
2018-02-08T00:54:22.897Z,78.73
2018-02-08T00:56:49.252Z,78.64
2018-02-08T00:59:15.591Z,78.02
2018-02-08T01:01:42.106Z,78.19
2018-02-08T01:04:08.436Z,77.88
2018-02-08T01:06:34.790Z,78.23
2018-02-08T01:09:01.184Z,78.40
2018-02-08T01:11:27.520Z,77.88
2018-02-08T01:13:53.952Z,77.71
2018-02-08T01:16:20.315Z,77.93
2018-02-08T01:18:46.680Z,78.45
2018-02-08T01:21:13.214Z,78.59
2018-02-08T01:23:39.552Z,78.51
2018-02-08T01:26:05.892Z,78.35
2018-02-08T01:28:32.301Z,78.71
2018-02-08T01:30:58.681Z,78.89
2018-02-08T01:33:25.021Z,78.28
2018-02-08T01:35:51.648Z,78.13
2018-02-08T01:38:18.164Z,78.02
2018-02-08T01:40:44.567Z,78.31
2018-02-08T01:43:10.968Z,78.37
2018-02-08T01:45:37.307Z,78.41
2018-02-08T01:48:03.668Z,78.86
2018-02-08T01:50:30.002Z,79.08
2018-02-08T01:52:56.372Z,79.23
2018-02-08T01:55:22.760Z,79.29
2018-02-08T01:57:49.197Z,79.21
2018-02-08T02:00:15.753Z,79.03
2018-02-08T02:02:42.317Z,79.14
2018-02-08T02:05:08.804Z,79.51
2018-02-08T02:07:35.189Z,80.47
2018-02-08T02:10:01.573Z,81.49
2018-02-08T02:12:27.966Z,81.98
2018-02-08T02:14:54.376Z,82.56
2018-02-08T02:17:20.793Z,83.00
2018-02-08T02:19:47.173Z,83.36
2018-02-08T02:22:13.576Z,82.96
2018-02-08T02:24:40.033Z,82.66
2018-02-08T02:27:06.365Z,82.87
2018-02-08T02:29:32.695Z,82.96
2018-02-08T02:31:59.105Z,82.92
2018-02-08T02:34:25.438Z,83.17
2018-02-08T02:36:51.824Z,83.33
2018-02-08T02:39:18.272Z,83.00
2018-02-08T02:41:44.669Z,83.05
2018-02-08T02:44:10.989Z,83.32
2018-02-08T02:46:37.357Z,83.63
2018-02-08T02:49:03.752Z,83.72
2018-02-08T02:51:30.081Z,83.56
2018-02-08T02:53:56.461Z,83.53
2018-02-08T02:56:23.033Z,83.77
2018-02-08T02:58:49.356Z,83.66
2018-02-08T03:01:15.773Z,83.81
2018-02-08T03:03:49.325Z,83.67
2018-02-08T03:06:15.661Z,83.58
2018-02-08T03:08:42.013Z,83.47
2018-02-08T03:11:08.421Z,83.52
2018-02-08T03:13:34.772Z,83.32
2018-02-08T03:16:01.124Z,83.18
2018-02-08T03:18:27.537Z,83.10
2018-02-08T03:20:53.914Z,82.87
2018-02-08T03:23:20.253Z,82.52
2018-02-08T03:25:46.683Z,82.44
2018-02-08T03:28:13.113Z,82.45
2018-02-08T03:30:41.514Z,82.41
2018-02-08T03:33:08.588Z,83.17
2018-02-08T03:35:35.112Z,82.50
2018-02-08T03:38:01.472Z,82.38
2018-02-08T03:40:27.900Z,82.16
2018-02-08T03:42:54.278Z,81.89
2018-02-08T03:45:20.697Z,81.73
2018-02-08T03:47:47.054Z,82.29
2018-02-08T03:50:13.465Z,81.80
2018-02-08T03:52:39.909Z,81.63
2018-02-08T03:55:06.281Z,81.25
2018-02-08T03:57:32.687Z,80.65
2018-02-08T03:59:59.073Z,79.58
2018-02-08T04:02:25.472Z,79.64
2018-02-08T04:04:51.891Z,80.08
2018-02-08T04:07:18.220Z,79.53
2018-02-08T04:09:44.945Z,78.65
2018-02-08T04:12:11.414Z,78.24
2018-02-08T04:14:37.772Z,80.52
2018-02-08T04:17:04.240Z,82.39
2018-02-08T04:19:30.641Z,82.14
2018-02-08T04:21:57.048Z,81.68
2018-02-08T04:24:23.433Z,81.21
2018-02-08T04:26:49.909Z,80.67
2018-02-08T04:29:16.360Z,82.27
2018-02-08T04:31:42.735Z,82.03
2018-02-08T04:34:09.136Z,82.47
2018-02-08T04:36:35.517Z,81.81
2018-02-08T04:39:13.938Z,81.08
2018-02-08T04:41:52.318Z,81.22
2018-02-08T04:44:30.862Z,80.92
2018-02-08T04:47:07.321Z,81.15
2018-02-08T04:49:33.741Z,81.46
2018-02-08T04:52:00.235Z,81.76
2018-02-08T04:54:26.660Z,82.05
2018-02-08T04:56:53.017Z,81.90
2018-02-08T04:59:19.429Z,81.69
2018-02-08T05:01:45.906Z,81.39
2018-02-08T05:04:12.257Z,80.59
2018-02-08T05:06:38.727Z,81.25
2018-02-08T05:09:05.117Z,81.37
2018-02-08T05:11:31.443Z,81.50
2018-02-08T05:13:57.844Z,81.52
2018-02-08T05:16:24.201Z,81.65
2018-02-08T05:18:50.549Z,81.51
2018-02-08T05:21:16.920Z,81.23
2018-02-08T05:23:43.248Z,81.02
2018-02-08T05:26:09.584Z,81.07
2018-02-08T05:28:36.012Z,81.09
2018-02-08T05:31:02.421Z,81.39
2018-02-08T05:33:28.947Z,81.46
2018-02-08T05:35:55.498Z,81.39
2018-02-08T05:38:21.852Z,81.08
2018-02-08T05:40:48.289Z,81.02
2018-02-08T05:43:14.701Z,80.94
2018-02-08T05:45:41.192Z,81.10
2018-02-08T05:48:07.646Z,81.09
2018-02-08T05:50:34.092Z,81.13
2018-02-08T05:53:00.504Z,81.53
2018-02-08T05:55:26.853Z,81.16
2018-02-08T05:57:53.238Z,80.96
2018-02-08T06:00:19.612Z,80.82
2018-02-08T06:02:46.045Z,80.78
2018-02-08T06:05:12.501Z,80.96
2018-02-08T06:07:38.937Z,80.75
2018-02-08T06:10:05.477Z,80.82
2018-02-08T06:12:31.901Z,80.77
2018-02-08T06:14:58.356Z,81.55
2018-02-08T06:17:24.736Z,81.26
2018-02-08T06:19:51.246Z,81.61
2018-02-08T06:22:17.692Z,81.40
2018-02-08T06:24:44.187Z,81.40
2018-02-08T06:27:10.789Z,81.13
2018-02-08T06:29:37.280Z,81.24
2018-02-08T06:32:03.699Z,81.22
2018-02-08T06:34:30.624Z,81.24
2018-02-08T06:36:57.453Z,80.93
2018-02-08T06:39:24.373Z,81.34
2018-02-08T06:41:51.000Z,81.31
2018-02-08T06:44:17.352Z,81.21
2018-02-08T06:46:43.735Z,81.10
2018-02-08T06:49:10.408Z,80.70
2018-02-08T06:51:36.866Z,80.75
2018-02-08T06:54:03.336Z,80.54
2018-02-08T06:56:29.728Z,80.29
2018-02-08T06:58:56.197Z,79.72
2018-02-08T07:01:22.761Z,80.15
2018-02-08T07:03:49.152Z,79.71
2018-02-08T07:06:15.588Z,79.81
2018-02-08T07:08:42.025Z,79.56
2018-02-08T07:11:08.489Z,79.33
2018-02-08T07:13:34.999Z,79.29
2018-02-08T07:16:01.364Z,78.76
2018-02-08T07:18:28.116Z,78.96
2018-02-08T07:20:54.538Z,78.26
2018-02-08T07:23:21.017Z,77.72
2018-02-08T07:25:47.448Z,78.63
2018-02-08T07:28:13.916Z,78.68
2018-02-08T07:30:40.287Z,78.37
2018-02-08T07:33:06.820Z,77.86
2018-02-08T07:35:33.220Z,76.47
2018-02-08T07:37:59.608Z,76.72
2018-02-08T07:40:26.031Z,76.10
2018-02-08T07:42:52.417Z,75.65
2018-02-08T07:45:18.920Z,75.45
2018-02-08T07:47:45.273Z,75.59
2018-02-08T07:50:12.026Z,76.12
2018-02-08T07:52:39.286Z,75.40
2018-02-08T07:55:06.224Z,75.35
2018-02-08T07:57:32.894Z,74.41
2018-02-08T07:59:59.329Z,74.91
2018-02-08T08:02:25.657Z,74.39
2018-02-08T08:04:52.125Z,73.82
2018-02-08T08:07:18.548Z,74.31
2018-02-08T08:09:44.940Z,73.08
2018-02-08T08:12:11.389Z,72.67
2018-02-08T08:14:37.740Z,72.46
2018-02-08T08:17:04.193Z,72.71
2018-02-08T08:19:30.542Z,71.83
2018-02-08T08:21:56.890Z,72.31
2018-02-08T08:24:23.306Z,73.02
2018-02-08T08:26:49.717Z,72.19
2018-02-08T08:29:16.183Z,71.45
2018-02-08T08:31:42.632Z,71.95
2018-02-08T08:34:09.011Z,73.48
2018-02-08T08:36:35.425Z,70.92
2018-02-08T08:39:01.860Z,71.27
2018-02-08T08:41:28.352Z,71.01
2018-02-08T08:43:54.789Z,71.39
2018-02-08T08:46:21.282Z,71.23
2018-02-08T08:48:47.721Z,70.48
2018-02-08T08:51:14.328Z,69.52
2018-02-08T08:53:40.809Z,69.52
2018-02-08T08:56:07.173Z,69.16
2018-02-08T08:58:33.605Z,69.21
2018-02-08T09:01:00.084Z,70.03
2018-02-08T09:03:26.457Z,68.99
2018-02-08T09:05:52.801Z,69.07
2018-02-08T09:08:19.200Z,68.86
2018-02-08T09:10:45.588Z,72.57
2018-02-08T09:13:12.064Z,73.49
2018-02-08T09:15:38.497Z,73.49
2018-02-08T09:18:05.072Z,73.35
2018-02-08T09:20:31.470Z,71.98
2018-02-08T09:22:57.964Z,71.70
2018-02-08T09:25:24.378Z,69.29
2018-02-08T09:27:50.757Z,68.07
2018-02-08T09:30:17.217Z,70.86
2018-02-08T09:32:43.625Z,71.93
2018-02-08T09:35:09.985Z,68.75
2018-02-08T09:37:36.375Z,68.73
2018-02-08T09:40:02.775Z,71.50
2018-02-08T09:42:29.141Z,71.07
2018-02-08T09:44:55.527Z,68.08
2018-02-08T09:47:21.959Z,70.71
2018-02-08T09:49:48.352Z,69.72
2018-02-08T09:52:14.773Z,67.25
2018-02-08T09:54:41.266Z,67.55
2018-02-08T09:57:07.733Z,67.61
2018-02-08T09:59:34.093Z,69.48
2018-02-08T10:02:00.443Z,69.87
2018-02-08T10:04:26.836Z,67.18
2018-02-08T10:06:53.228Z,66.35
2018-02-08T10:09:19.804Z,67.01
2018-02-08T10:11:46.176Z,68.11
2018-02-08T10:14:12.630Z,67.47
2018-02-08T10:16:38.998Z,66.57
2018-02-08T10:19:05.358Z,69.09
2018-02-08T10:21:31.708Z,70.28
2018-02-08T10:23:58.073Z,70.50
2018-02-08T10:26:24.437Z,65.36
2018-02-08T10:28:51.024Z,68.91
2018-02-08T10:31:17.387Z,64.64
2018-02-08T10:33:44.137Z,67.79
2018-02-08T10:36:10.581Z,65.29
2018-02-08T10:38:37.225Z,65.98
2018-02-08T10:41:03.582Z,65.37
2018-02-08T10:43:29.956Z,65.17
2018-02-08T10:45:56.510Z,65.22
2018-02-08T10:48:23.058Z,67.44
2018-02-08T10:50:49.413Z,68.04
2018-02-08T10:53:15.860Z,68.48
2018-02-08T10:55:42.275Z,67.16
2018-02-08T10:58:08.629Z,65.39
2018-02-08T11:00:34.984Z,63.50
2018-02-08T11:03:01.368Z,63.92
2018-02-08T11:05:27.716Z,63.43
2018-02-08T11:07:54.210Z,66.61
2018-02-08T11:10:20.589Z,63.44
2018-02-08T11:12:47.004Z,62.55
2018-02-08T11:15:13.464Z,62.46
2018-02-08T11:17:39.864Z,63.62
2018-02-08T11:20:06.231Z,63.44
2018-02-08T11:22:32.580Z,63.05
2018-02-08T11:24:58.968Z,63.24
2018-02-08T11:27:25.509Z,67.36
2018-02-08T11:29:51.989Z,64.31
2018-02-08T11:32:18.399Z,65.93
2018-02-08T11:34:45.261Z,65.09
2018-02-08T11:37:12.405Z,63.96
2018-02-08T11:39:38.941Z,62.83
2018-02-08T11:42:05.433Z,63.58
2018-02-08T11:44:31.816Z,63.21
2018-02-08T11:46:58.800Z,62.92
2018-02-08T11:49:26.337Z,62.37
2018-02-08T11:51:53.078Z,61.63
2018-02-08T11:54:19.515Z,59.39
2018-02-08T11:56:46.028Z,59.91
2018-02-08T11:59:12.729Z,60.46
2018-02-08T12:01:39.160Z,59.31
2018-02-08T12:04:05.852Z,58.67
2018-02-08T12:06:32.380Z,59.48
2018-02-08T12:08:58.809Z,61.12
2018-02-08T12:11:25.515Z,62.25
2018-02-08T12:13:51.960Z,61.08
2018-02-08T12:16:18.594Z,59.57
2018-02-08T12:18:45.153Z,60.84
2018-02-08T12:21:12.174Z,60.42
2018-02-08T12:23:38.608Z,59.85
2018-02-08T12:26:05.320Z,60.13
2018-02-08T12:28:31.914Z,58.94
2018-02-08T12:30:58.306Z,59.90
2018-02-08T12:33:24.754Z,59.98
2018-02-08T12:35:51.464Z,61.01
2018-02-08T12:38:18.323Z,61.58
2018-02-08T12:40:45.342Z,61.57
2018-02-08T12:43:12.079Z,59.58
2018-02-08T12:45:38.602Z,59.48
2018-02-08T12:48:05.507Z,59.32
2018-02-08T12:50:32.154Z,59.08
2018-02-08T12:52:58.668Z,59.28
2018-02-08T12:55:25.464Z,60.76
2018-02-08T12:57:52.057Z,61.11
2018-02-08T13:00:18.991Z,61.08
2018-02-08T13:02:45.461Z,60.22
2018-02-08T13:05:12.229Z,59.20
2018-02-08T13:07:38.724Z,58.76
2018-02-08T13:10:05.434Z,58.11
2018-02-08T13:12:31.977Z,57.22
2018-02-08T13:14:58.500Z,58.28
2018-02-08T13:17:25.082Z,58.11
2018-02-08T13:19:51.804Z,58.57
2018-02-08T13:22:18.425Z,58.28
2018-02-08T13:24:45.069Z,58.77
2018-02-08T13:27:11.987Z,59.24
2018-02-08T13:29:39.281Z,59.61
2018-02-08T13:32:07.028Z,59.00
2018-02-08T13:34:34.267Z,59.05
2018-02-08T13:37:01.099Z,59.16
2018-02-08T13:39:33.761Z,59.38
2018-02-08T13:55:30.970Z,60.29
2018-02-08T13:58:03.303Z,58.12
2018-02-08T14:00:34.895Z,57.97
2018-02-08T14:03:01.530Z,55.84
2018-02-08T14:05:27.965Z,58.75
2018-02-08T14:07:55.220Z,59.81
2018-02-08T14:10:21.655Z,59.89
2018-02-08T14:12:48.050Z,59.64
2018-02-08T14:15:14.461Z,60.09
2018-02-08T14:17:40.984Z,58.92
2018-02-08T14:20:07.662Z,58.88
2018-02-08T14:22:34.133Z,60.35
2018-02-08T14:25:00.621Z,60.28
2018-02-08T14:27:26.981Z,60.08
2018-02-08T14:29:53.388Z,59.96
2018-02-08T14:32:19.845Z,60.68
2018-02-08T14:34:46.325Z,60.65
2018-02-08T14:37:12.967Z,61.02
2018-02-08T14:39:39.436Z,61.21
2018-02-08T14:42:05.936Z,61.33
2018-02-08T14:44:32.424Z,61.43
2018-02-08T14:46:58.772Z,61.55
2018-02-08T14:49:25.329Z,61.50
2018-02-08T14:51:51.924Z,61.46
2018-02-08T14:54:18.428Z,61.87
2018-02-08T14:56:44.793Z,62.59
2018-02-08T14:59:11.218Z,62.82
2018-02-08T15:01:37.613Z,62.83
2018-02-08T15:04:04.086Z,62.48
2018-02-08T15:06:30.521Z,62.28
2018-02-08T15:08:56.904Z,62.38
2018-02-08T15:11:23.440Z,62.60
2018-02-08T15:13:49.809Z,62.82
2018-02-08T15:16:16.350Z,62.97
2018-02-08T15:18:42.842Z,63.18
2018-02-08T15:21:09.212Z,65.70
2018-02-08T15:23:35.641Z,63.92
2018-02-08T15:26:02.252Z,64.02
2018-02-08T15:28:28.631Z,63.80
2018-02-08T15:30:56.081Z,64.91
2018-02-08T15:33:22.486Z,63.99
2018-02-08T15:35:49.428Z,64.38
2018-02-08T15:38:16.373Z,64.95
2018-02-08T15:40:42.850Z,65.07
2018-02-08T15:43:09.217Z,65.18
2018-02-08T15:45:35.664Z,67.82
2018-02-08T15:48:02.067Z,66.22
2018-02-08T15:50:28.818Z,65.01
2018-02-08T15:52:55.389Z,65.95
2018-02-08T15:55:21.787Z,68.19
2018-02-08T15:57:48.142Z,70.24
2018-02-08T16:00:14.794Z,67.93
2018-02-08T16:02:41.303Z,65.91
2018-02-08T16:05:07.720Z,68.53
2018-02-08T16:07:34.514Z,67.22
2018-02-08T16:10:01.437Z,67.26
2018-02-08T16:12:27.816Z,68.04
2018-02-08T16:14:54.307Z,66.17
2018-02-08T16:17:20.692Z,65.54
2018-02-08T16:19:47.110Z,66.92
2018-02-08T16:22:13.999Z,68.46
2018-02-08T16:24:40.328Z,69.78
2018-02-08T16:27:06.728Z,69.65
2018-02-08T16:29:33.196Z,70.55
2018-02-08T16:31:59.584Z,70.68
2018-02-08T16:34:26.052Z,70.38
2018-02-08T16:36:52.526Z,69.22
2018-02-08T16:39:18.921Z,68.67
2018-02-08T16:41:45.465Z,69.98
2018-02-08T16:44:12.519Z,68.59
2018-02-08T16:46:38.960Z,67.08
2018-02-08T16:49:05.335Z,69.57
2018-02-08T16:51:33.556Z,70.90
2018-02-08T16:54:00.021Z,71.17
2018-02-08T16:56:26.610Z,71.66
2018-02-08T16:58:53.020Z,71.83
2018-02-08T17:01:20.015Z,71.67
2018-02-08T17:03:46.395Z,69.61
2018-02-08T17:06:12.805Z,72.54
2018-02-08T17:08:39.196Z,72.29
2018-02-08T17:11:05.721Z,73.10
2018-02-08T17:13:32.313Z,72.98
2018-02-08T17:15:58.788Z,73.09
2018-02-08T17:18:26.478Z,73.31
2018-02-08T17:20:53.023Z,72.86
2018-02-08T17:23:19.487Z,73.60
2018-02-08T17:25:45.849Z,72.44
2018-02-08T17:28:13.134Z,73.74
2018-02-08T17:30:39.537Z,73.88
2018-02-08T17:33:05.892Z,73.63
2018-02-08T17:35:32.257Z,74.24
2018-02-08T17:37:59.592Z,74.27
2018-02-08T17:40:25.944Z,74.25
2018-02-08T17:42:54.370Z,74.40
2018-02-08T17:45:21.704Z,74.51
2018-02-08T17:47:48.205Z,72.78
2018-02-08T17:50:14.717Z,74.32
2018-02-08T17:52:41.207Z,74.58
2018-02-08T17:55:07.610Z,74.98
2018-02-08T17:57:34.046Z,75.99
2018-02-08T18:00:00.590Z,75.48
2018-02-08T18:02:26.922Z,74.54
2018-02-08T18:04:53.268Z,74.34
2018-02-08T18:07:20.258Z,73.54
2018-02-08T18:09:46.598Z,73.80
2018-02-08T18:12:13.586Z,73.81
2018-02-08T18:14:39.951Z,73.85
2018-02-08T18:17:06.321Z,73.98
2018-02-08T18:19:34.919Z,73.77
2018-02-08T18:22:01.304Z,74.12
2018-02-08T18:24:27.986Z,74.07
2018-02-08T18:26:54.402Z,74.13
2018-02-08T18:29:21.368Z,74.10
2018-02-08T18:31:47.804Z,73.29
2018-02-08T18:34:16.422Z,74.09
2018-02-08T18:36:42.758Z,74.36
2018-02-08T18:39:09.710Z,74.24
2018-02-08T18:41:36.061Z,72.89
2018-02-08T18:44:02.403Z,74.20
2018-02-08T18:46:28.777Z,74.38
2018-02-08T18:48:55.131Z,74.36
2018-02-08T18:51:21.546Z,74.10
2018-02-08T18:53:48.139Z,74.51
2018-02-08T18:56:14.544Z,74.86
2018-02-08T18:58:40.889Z,74.94
2018-02-08T19:01:07.279Z,74.91
2018-02-08T19:03:33.729Z,74.83
2018-02-08T19:06:00.062Z,74.91
2018-02-08T19:08:26.393Z,74.44
2018-02-08T19:10:52.825Z,75.08
2018-02-08T19:13:19.153Z,74.80
2018-02-08T19:15:45.521Z,75.03
2018-02-08T19:18:11.943Z,75.72
2018-02-08T19:20:38.377Z,75.02
2018-02-08T19:23:04.709Z,74.06
2018-02-08T19:25:31.094Z,74.72
2018-02-08T19:27:58.221Z,75.11
2018-02-08T19:30:24.628Z,75.00
2018-02-08T19:32:51.114Z,74.38
2018-02-08T19:35:17.592Z,74.59
2018-02-08T19:37:44.713Z,75.02
2018-02-08T19:40:11.106Z,74.96
2018-02-08T19:42:37.819Z,75.06
2018-02-08T19:45:04.262Z,75.10
2018-02-08T19:47:31.448Z,75.00
2018-02-08T19:49:57.855Z,75.13
2018-02-08T19:52:24.387Z,75.37
2018-02-08T19:54:51.293Z,75.16
2018-02-08T19:57:17.792Z,74.77
2018-02-08T19:59:44.227Z,74.31
2018-02-08T20:02:10.632Z,74.49
2018-02-08T20:04:37.104Z,75.06
2018-02-08T20:07:03.623Z,75.41
2018-02-08T20:09:30.015Z,75.52
2018-02-08T20:11:57.021Z,75.43
2018-02-08T20:14:29.577Z,74.97
2018-02-08T20:16:55.948Z,74.25
2018-02-08T20:19:22.343Z,75.00
2018-02-08T20:21:48.810Z,74.89
2018-02-08T20:24:15.258Z,75.10
2018-02-08T20:26:41.619Z,75.46
2018-02-08T20:29:08.043Z,75.75
2018-02-08T20:31:34.411Z,74.81
2018-02-08T20:34:01.789Z,75.81
2018-02-08T20:36:28.251Z,74.81
2018-02-08T20:38:54.583Z,74.78
2018-02-08T20:41:21.070Z,75.44
2018-02-08T20:43:47.474Z,75.69
2018-02-08T20:46:14.173Z,76.05
2018-02-08T20:48:40.508Z,76.04
2018-02-08T20:51:07.266Z,75.14
2018-02-08T20:53:33.639Z,74.73
2018-02-08T20:56:00.038Z,74.61
2018-02-08T20:58:26.465Z,74.52
2018-02-08T21:00:52.875Z,74.45
2018-02-08T21:03:19.246Z,74.72
2018-02-08T21:05:45.638Z,75.11
2018-02-08T21:08:11.992Z,75.23
2018-02-08T21:10:38.368Z,75.93
2018-02-08T21:13:07.762Z,75.99
2018-02-08T21:15:34.136Z,75.93
2018-02-08T21:18:00.529Z,75.69
2018-02-08T21:20:26.978Z,74.47
2018-02-08T21:22:54.340Z,74.83
2018-02-08T21:25:21.564Z,74.70
2018-02-08T21:27:48.019Z,74.74
2018-02-08T21:30:14.353Z,74.51
2018-02-08T21:32:40.708Z,75.17
2018-02-08T21:35:07.109Z,74.81
2018-02-08T21:37:33.520Z,74.83
2018-02-08T21:39:59.861Z,74.88
2018-02-08T21:42:26.359Z,75.12
2018-02-08T21:44:52.718Z,74.93
2018-02-08T21:47:19.078Z,75.68
2018-02-08T21:49:45.488Z,74.99
2018-02-08T21:52:11.831Z,74.14
2018-02-08T21:54:38.173Z,74.68
2018-02-08T21:57:04.556Z,74.52
2018-02-08T21:59:30.944Z,75.14
2018-02-08T22:01:57.415Z,76.20
2018-02-08T22:04:23.733Z,76.11
2018-02-08T22:06:50.277Z,75.16
2018-02-08T22:09:16.601Z,75.46
2018-02-08T22:11:42.928Z,75.01
2018-02-08T22:14:09.309Z,74.73
2018-02-08T22:16:35.765Z,75.26
2018-02-08T22:19:02.085Z,75.13
2018-02-08T22:21:28.485Z,74.24
2018-02-08T22:23:54.869Z,74.63
2018-02-08T22:26:21.205Z,74.36
2018-02-08T22:28:47.576Z,74.99
2018-02-08T22:31:13.908Z,74.95
2018-02-08T22:33:40.256Z,74.20
2018-02-08T22:36:06.640Z,74.67
2018-02-08T22:38:32.993Z,74.52
2018-02-08T22:40:59.357Z,74.40
2018-02-08T22:43:25.817Z,74.68
2018-02-08T22:45:52.165Z,75.28
2018-02-08T22:48:18.528Z,75.14
2018-02-08T22:50:44.933Z,74.04
2018-02-08T22:53:11.297Z,73.92
2018-02-08T22:55:37.624Z,74.54
2018-02-08T22:58:04.049Z,73.80
2018-02-08T23:00:30.456Z,73.42
2018-02-08T23:02:56.821Z,73.93
2018-02-08T23:05:23.176Z,74.02
2018-02-08T23:07:49.528Z,73.47
2018-02-08T23:10:16.044Z,75.04
2018-02-08T23:12:42.385Z,74.47
2018-02-08T23:15:08.761Z,74.47
2018-02-08T23:17:35.187Z,73.98
2018-02-08T23:20:01.554Z,73.96
2018-02-08T23:22:27.892Z,74.26
2018-02-08T23:24:54.276Z,74.09
2018-02-08T23:27:20.629Z,74.36
2018-02-08T23:29:46.961Z,74.21
2018-02-08T23:32:13.371Z,74.10
2018-02-08T23:34:39.773Z,74.52
2018-02-08T23:37:06.148Z,74.37
2018-02-08T23:39:32.537Z,74.02
2018-02-08T23:41:58.912Z,73.85
2018-02-08T23:44:25.244Z,73.66
2018-02-08T23:46:51.633Z,76.43
2018-02-08T23:49:18.000Z,76.13
2018-02-08T23:51:44.349Z,75.24
2018-02-08T23:54:10.697Z,74.04
2018-02-08T23:56:37.252Z,73.99
2018-02-08T23:59:03.680Z,74.43
